METAR Data
IDs: Format: Raw Decoded Include TAF

Data at: 1348 UTC 13 Dec 2019

KCCA 131335Z AUTO 00000KT 10SM OVC060 01/M00 A3001 RMK AO2
KCCA 131315Z AUTO 00000KT 10SM OVC060 01/M00 A3002 RMK AO2
KCCA 131255Z AUTO 00000KT 10SM OVC060 01/M00 A3001 RMK AO2
KCCA 131235Z AUTO 00000KT 10SM OVC060 00/M01 A3001 RMK AO2
KCCA 131215Z AUTO 00000KT 10SM OVC060 00/M01 A3001 RMK AO2
KCCA 131155Z AUTO 00000KT 10SM OVC060 00/M01 A3001 RMK AO2
KCCA 131135Z AUTO 00000KT 10SM OVC065 M00/M01 A3001 RMK AO2
KCCA 131115Z AUTO 00000KT 10SM OVC065 M00/M01 A3001 RMK AO2
KCCA 131055Z AUTO 00000KT 10SM BKN065 M00/M01 A3002 RMK AO2
KCCA 131035Z AUTO 00000KT 10SM SCT060 BKN070 M00/M01 A3002 RMK AO2
KCCA 131015Z AUTO 00000KT 10SM OVC060 M00/M01 A3002 RMK AO2
KCCA 130955Z AUTO 00000KT 10SM SCT060 M00/M01 A3004 RMK AO2
KCCA 130935Z AUTO 00000KT 10SM SCT070 M01/M01 A3004 RMK AO2
KCCA 130915Z AUTO 00000KT 10SM SCT070 M01/M01 A3006 RMK AO2
KCCA 130855Z AUTO 00000KT 10SM CLR M00/M01 A3005 RMK AO2
KCCA 130835Z AUTO 00000KT 10SM CLR M00/M01 A3006 RMK AO2
KCCA 130815Z AUTO 00000KT 10SM CLR M00/M01 A3006 RMK AO2
KCCA 130755Z AUTO 00000KT 10SM CLR M01/M02 A3007 RMK AO2
KCCA 130735Z AUTO 00000KT 10SM FEW075 M01/M02 A3008 RMK AO2
KCCA 130715Z AUTO 00000KT 10SM CLR M01/M02 A3008 RMK AO2
KCCA 130655Z AUTO 00000KT 10SM CLR M01/M02 A3009 RMK AO2
KCCA 130635Z AUTO 00000KT 10SM CLR M01/M02 A3010 RMK AO2
KCCA 130615Z AUTO 00000KT 10SM FEW085 M01/M02 A3010 RMK AO2
KCCA 130555Z AUTO 00000KT 10SM FEW085 M02/M02 A3011 RMK AO2
KCCA 130535Z AUTO 00000KT 10SM CLR M02/M02 A3012 RMK AO2
KCCA 130515Z AUTO 00000KT 10SM CLR M02/M02 A3013 RMK AO2
KCCA 130455Z AUTO 00000KT 10SM FEW024 M02/M02 A3012 RMK AO2
KCCA 130435Z AUTO 00000KT 10SM SCT024 M02/M02 A3013 RMK AO2
KCCA 130415Z AUTO 00000KT 10SM CLR M02/M02 A3013 RMK AO2
KCCA 130355Z AUTO 00000KT 10SM CLR M01/M03 A3013 RMK AO2
KCCA 130335Z AUTO 00000KT 10SM CLR M01/M02 A3013 RMK AO2
KCCA 130315Z AUTO 00000KT 10SM CLR M01/M02 A3014 RMK AO2
KCCA 130255Z AUTO 00000KT 10SM CLR M01/M02 A3014 RMK AO2
KCCA 130235Z AUTO 00000KT 10SM CLR M01/M03 A3015 RMK AO2
KCCA 130215Z AUTO 00000KT 9SM CLR M01/M02 A3015 RMK AO2
KCCA 130155Z AUTO 00000KT 10SM CLR M01/M02 A3014 RMK AO2
KCCA 130135Z AUTO 00000KT 10SM CLR M00/M02 A3014 RMK AO2
KCCA 130115Z AUTO 00000KT 10SM CLR M00/M02 A3015 RMK AO2
KCCA 130055Z AUTO 00000KT 10SM CLR 00/M01 A3016 RMK AO2
KCCA 130035Z AUTO 00000KT 10SM CLR 01/M01 A3015 RMK AO2
KCCA 130015Z AUTO 00000KT 10SM CLR 02/M01 A3016 RMK AO2
KCCA 122355Z AUTO 00000KT 10SM CLR 02/M01 A3016 RMK AO2
KCCA 122335Z AUTO 00000KT 10SM CLR 03/M01 A3014 RMK AO2
KCCA 122315Z AUTO 00000KT 10SM CLR 05/M01 A3014 RMK AO2
KCCA 122255Z AUTO 00000KT 10SM CLR 07/M01 A3015 RMK AO2
KCCA 122235Z AUTO 00000KT 10SM CLR 10/M04 A3016 RMK AO2
KCCA 122215Z AUTO 00000KT 10SM CLR 11/M04 A3016 RMK AO2
KCCA 122155Z AUTO VRB04KT 10SM CLR 11/M04 A3016 RMK AO2
KCCA 122135Z AUTO VRB05KT 10SM CLR 11/M04 A3017 RMK AO2
KCCA 122115Z AUTO 15006KT 10SM CLR 12/M05 A3017 RMK AO2
KCCA 122055Z AUTO 13005KT 10SM CLR 12/M04 A3018 RMK AO2
KCCA 122035Z AUTO 00000KT 10SM CLR 11/M05 A3018 RMK AO2
KCCA 122015Z AUTO 14005KT 10SM CLR 11/M05 A3020 RMK AO2
KCCA 121955Z AUTO 21005KT 10SM CLR 11/M05 A3021 RMK AO2
KCCA 121935Z AUTO VRB03KT 10SM CLR 11/M05 A3022 RMK AO2
KCCA 121915Z AUTO 15006KT 10SM CLR 11/M05 A3023 RMK AO2
KCCA 121855Z AUTO 23005G10KT 10SM CLR 10/M05 A3025 RMK AO2
KCCA 121835Z AUTO 22007KT 10SM CLR 11/M06 A3027 RMK AO2
KCCA 121815Z AUTO 22006KT 10SM CLR 11/M05 A3030 RMK AO2
KCCA 121755Z AUTO 15005KT 10SM CLR 10/M05 A3032 RMK AO2
KCCA 121735Z AUTO 20008KT 10SM CLR 10/M03 A3033 RMK AO2
KCCA 121715Z AUTO VRB03KT 10SM CLR 09/M02 A3035 RMK AO2
KCCA 121655Z AUTO VRB04KT 10SM CLR 09/M00 A3037 RMK AO2
KCCA 121635Z AUTO VRB03KT 10SM CLR 08/M00 A3038 RMK AO2
KCCA 121615Z AUTO 00000KT 10SM CLR 06/M00 A3039 RMK AO2
KCCA 121555Z AUTO 00000KT 9SM CLR 04/01 A3039 RMK AO2
KCCA 121535Z AUTO 00000KT 7SM CLR 02/M00 A3040 RMK AO2
KCCA 121515Z AUTO 00000KT 10SM CLR 01/M01 A3041 RMK AO2
KCCA 121455Z AUTO 00000KT 10SM CLR M00/M02 A3041 RMK AO2
KCCA 121435Z AUTO 00000KT 10SM CLR M02/M02 A3042 RMK AO2
KCCA 121415Z AUTO 00000KT 10SM CLR M02/M03 A3041 RMK AO2
KCCA 121355Z AUTO 00000KT 10SM CLR M03/M03 A3042 RMK AO2
KCCA 121335Z AUTO 00000KT 10SM CLR M03/M04 A3042 RMK AO2
KCCA 121315Z AUTO 00000KT 10SM CLR M03/M04 A3042 RMK AO2
KCCA 121255Z AUTO 00000KT 10SM CLR M04/M04 A3041 RMK AO2
KCCA 121235Z AUTO 00000KT 10SM CLR M04/M04 A3042 RMK AO2
KCCA 121215Z AUTO 00000KT 10SM CLR M04/M04 A3042 RMK AO2
KCCA 121155Z AUTO 00000KT 10SM CLR M04/M04 A3042 RMK AO2
KCCA 121135Z AUTO 00000KT 10SM CLR M04/M04 A3043 RMK AO2
KCCA 121115Z AUTO 00000KT 10SM CLR M04/M04 A3043 RMK AO2
KCCA 121055Z AUTO 00000KT 10SM CLR M04/M04 A3043 RMK AO2
KCCA 121035Z AUTO 00000KT 10SM CLR M04/M04 A3043 RMK AO2
KCCA 121015Z AUTO 00000KT 10SM CLR M04/M04 A3043 RMK AO2
KCCA 120955Z AUTO 00000KT 10SM CLR M04/M04 A3043 RMK AO2
KCCA 120935Z AUTO 00000KT 9SM CLR M04/M04 A3042 RMK AO2
KCCA 120915Z AUTO 00000KT 9SM CLR M04/M05 A3043 RMK AO2
KCCA 120855Z AUTO 00000KT 10SM CLR M04/M05 A3044 RMK AO2
KCCA 120835Z AUTO 00000KT 9SM CLR M04/M04 A3045 RMK AO2
KCCA 120815Z AUTO 00000KT 10SM CLR M04/M04 A3046 RMK AO2
KCCA 120755Z AUTO 00000KT 9SM CLR M04/M04 A3047 RMK AO2
KCCA 120735Z AUTO 00000KT 10SM CLR M04/M04 A3046 RMK AO2
KCCA 120715Z AUTO 00000KT 9SM CLR M04/M04 A3047 RMK AO2
KCCA 120655Z AUTO 00000KT 10SM CLR M04/M04 A3047 RMK AO2
KCCA 120635Z AUTO 00000KT 10SM CLR M03/M04 A3047 RMK AO2
KCCA 120555Z AUTO 00000KT 10SM CLR M03/M04 A3048 RMK AO2
KCCA 120535Z AUTO 00000KT 10SM CLR M03/M04 A3048 RMK AO2
KCCA 120515Z AUTO 00000KT 10SM CLR M03/M03 A3048 RMK AO2
KCCA 120455Z AUTO 00000KT 10SM CLR M03/M04 A3047 RMK AO2
KCCA 120435Z AUTO 00000KT 10SM CLR M03/M03 A3047 RMK AO2
KCCA 120415Z AUTO 00000KT 10SM CLR M02/M03 A3047 RMK AO2
KCCA 120355Z AUTO 00000KT 10SM CLR M02/M03 A3047 RMK AO2
KCCA 120335Z AUTO 00000KT 10SM CLR M02/M03 A3047 RMK AO2
KCCA 120315Z AUTO 00000KT 10SM CLR M02/M03 A3047 RMK AO2
KCCA 120255Z AUTO 00000KT 10SM CLR M02/M03 A3047 RMK AO2
KCCA 120235Z AUTO 00000KT 10SM CLR M01/M03 A3048 RMK AO2
KCCA 120215Z AUTO 00000KT 10SM CLR M01/M03 A3047 RMK AO2
KCCA 120155Z AUTO 00000KT 10SM CLR M01/M02 A3047 RMK AO2